createdAt,value
2022-11-16T00:01:41.390Z,100080.41
2022-11-16T00:04:09.652Z,100069.75
2022-11-16T00:06:36.137Z,100073.03
2022-11-16T00:09:22.112Z,100071.41
2022-11-16T00:11:50.254Z,100068.75
2022-11-16T00:14:17.450Z,100078.97
2022-11-16T00:16:43.884Z,100072.00
2022-11-16T00:19:11.388Z,100072.81
2022-11-16T00:21:38.164Z,100071.78
2022-11-16T00:24:05.568Z,100070.56
2022-11-16T00:26:32.047Z,100067.91
2022-11-16T00:28:58.783Z,100068.69
2022-11-16T00:31:25.347Z,100069.53
2022-11-16T00:33:52.236Z,100065.25
2022-11-16T00:36:19.012Z,100066.88
2022-11-16T00:38:45.584Z,100063.16
2022-11-16T00:41:12.112Z,100070.72
2022-11-16T00:43:38.645Z,100060.69
2022-11-16T00:46:05.484Z,100065.19
2022-11-16T00:48:32.423Z,100055.34
2022-11-16T00:50:59.008Z,100056.59
2022-11-16T00:53:25.492Z,100057.00
2022-11-16T00:55:52.048Z,100045.16
2022-11-16T00:58:18.543Z,100048.22
2022-11-16T01:00:45.167Z,100052.69
2022-11-16T01:03:12.156Z,100045.34
2022-11-16T01:05:38.823Z,100042.91
2022-11-16T01:08:06.391Z,100051.50
2022-11-16T01:10:33.068Z,100052.53
2022-11-16T01:12:59.679Z,100051.28
2022-11-16T01:15:27.716Z,100047.38
2022-11-16T01:17:55.966Z,100031.44
2022-11-16T01:20:28.640Z,100045.97
2022-11-16T01:22:55.472Z,100048.03
2022-11-16T01:25:22.056Z,100042.06
2022-11-16T01:27:48.705Z,100040.03
2022-11-16T01:30:16.484Z,100037.56
2022-11-16T01:32:43.056Z,100030.84
2022-11-16T01:35:14.703Z,100033.28
2022-11-16T01:37:41.177Z,100014.06
2022-11-16T01:40:08.197Z,100026.31
2022-11-16T01:42:34.773Z,100026.31
2022-11-16T01:45:21.638Z,100032.25
2022-11-16T01:47:48.635Z,100031.22
2022-11-16T01:50:17.457Z,100034.91
2022-11-16T01:52:50.671Z,100026.91
2022-11-16T01:55:17.485Z,100038.16
2022-11-16T01:57:47.577Z,100033.06
2022-11-16T02:00:15.165Z,100025.28
2022-11-16T02:02:42.195Z,100022.22
2022-11-16T02:05:11.091Z,100025.91
2022-11-16T02:08:53.202Z,100015.06
2022-11-16T02:11:25.664Z,100001.75
2022-11-16T02:14:10.464Z,100010.53
2022-11-16T02:17:06.190Z,100011.56
2022-11-16T02:19:51.204Z,100000.72
2022-11-16T02:22:29.840Z,100004.19
2022-11-16T02:25:07.941Z,100003.38
2022-11-16T02:27:50.561Z,100013.81
2022-11-16T02:30:19.116Z,100002.13
2022-11-16T02:33:00.103Z,99994.56
2022-11-16T02:35:49.720Z,100008.47
2022-11-16T02:38:32.712Z,100007.88
2022-11-16T02:41:08.043Z,100007.88
2022-11-16T02:43:38.878Z,100005.22
2022-11-16T02:46:09.807Z,99995.59
2022-11-16T02:48:40.127Z,99999.69
2022-11-16T02:51:08.175Z,100006.25
2022-11-16T02:53:41.254Z,99991.91
2022-11-16T02:56:13.153Z,99996.44
2022-11-16T02:58:39.694Z,99995.41
2022-11-16T03:01:12.840Z,100000.50
2022-11-16T03:03:50.647Z,100005.03
2022-11-16T03:06:26.420Z,99996.22
2022-11-16T03:09:07.587Z,100001.53
2022-11-16T03:11:57.214Z,99995.84
2022-11-16T03:14:30.883Z,99999.28
2022-11-16T03:16:58.567Z,100000.94
2022-11-16T03:19:33.449Z,100006.47
2022-11-16T03:22:06.358Z,100002.97
2022-11-16T03:24:33.111Z,100009.94
2022-11-16T03:27:37.151Z,100014.47
2022-11-16T03:30:13.163Z,100006.66
2022-11-16T03:32:55.106Z,100004.44
2022-11-16T03:35:50.513Z,100005.03
2022-11-16T03:38:19.121Z,99998.47
2022-11-16T03:40:47.457Z,99997.88
2022-11-16T03:43:15.385Z,100005.06
2022-11-16T03:45:43.124Z,100013.22
2022-11-16T03:48:09.576Z,100012.84
2022-11-16T03:50:36.017Z,100017.38
2022-11-16T03:53:02.508Z,100016.13
2022-11-16T03:55:28.977Z,100012.06
2022-11-16T03:57:55.641Z,100018.41
2022-11-16T04:00:22.072Z,100023.91
2022-11-16T04:02:48.478Z,100024.94
2022-11-16T04:05:33.925Z,100030.31
2022-11-16T04:08:18.696Z,100025.41
2022-11-16T04:11:11.520Z,100035.44
2022-11-16T04:13:56.264Z,100034.00
2022-11-16T04:16:40.994Z,100030.97
2022-11-16T04:19:27.882Z,100035.06
2022-11-16T04:22:18.183Z,100029.56
2022-11-16T04:24:48.878Z,100035.47
2022-11-16T04:27:34.870Z,100035.06
2022-11-16T04:30:03.521Z,100034.06
2022-11-16T04:32:48.496Z,100033.47
2022-11-16T04:35:33.806Z,100043.06
2022-11-16T04:38:00.484Z,100039.19
2022-11-16T04:40:29.497Z,100045.72
2022-11-16T04:43:01.504Z,100048.63
2022-11-16T04:45:46.719Z,100050.66
2022-11-16T04:48:14.958Z,100048.19
2022-11-16T04:50:42.928Z,100045.16
2022-11-16T04:53:10.121Z,100058.44
2022-11-16T04:55:36.876Z,100055.16
2022-11-16T04:58:04.354Z,100059.47
2022-11-16T05:00:31.167Z,100059.25
2022-11-16T05:03:01.297Z,100059.47
2022-11-16T05:05:28.645Z,100050.28
2022-11-16T05:07:55.084Z,100054.78
2022-11-16T05:10:21.547Z,100057.84
2022-11-16T05:12:48.062Z,100064.97
2022-11-16T05:15:14.567Z,100060.69
2022-11-16T05:17:40.991Z,100064.78
2022-11-16T05:20:26.778Z,100072.16
2022-11-16T05:22:57.469Z,100066.00
2022-11-16T05:25:24.016Z,100081.16
2022-11-16T05:27:50.644Z,100079.72
2022-11-16T05:30:17.586Z,100068.09
2022-11-16T05:32:44.052Z,100075.81
2022-11-16T05:35:10.495Z,100076.03
2022-11-16T05:37:36.937Z,100077.25
2022-11-16T05:40:03.916Z,100078.88
2022-11-16T05:42:30.418Z,100084.81
2022-11-16T05:44:56.967Z,100080.34
2022-11-16T05:47:23.651Z,100082.97
2022-11-16T05:49:50.083Z,100094.00
2022-11-16T05:52:16.564Z,100095.03
2022-11-16T05:54:42.973Z,100099.09
2022-11-16T05:57:09.447Z,100096.47
2022-11-16T05:59:35.993Z,100096.66
2022-11-16T06:02:03.924Z,100096.03
2022-11-16T06:04:30.392Z,100100.09
2022-11-16T06:06:56.892Z,100100.94
2022-11-16T06:09:23.417Z,100094.81
2022-11-16T06:11:49.885Z,100095.41
2022-11-16T06:14:16.383Z,100098.06
2022-11-16T06:16:42.844Z,100091.53
2022-11-16T06:19:09.319Z,100098.69
2022-11-16T06:21:35.890Z,100094.41
2022-11-16T06:24:03.691Z,100087.47
2022-11-16T06:26:30.164Z,100084.59
2022-11-16T06:28:56.728Z,100089.09
2022-11-16T06:31:23.240Z,100089.28
2022-11-16T06:33:49.684Z,100093.34
2022-11-16T06:36:16.142Z,100101.31
2022-11-16T06:38:42.729Z,100103.34
2022-11-16T06:41:09.179Z,100098.44
2022-11-16T06:43:35.657Z,100102.13
2022-11-16T06:46:02.282Z,100108.66
2022-11-16T06:48:30.494Z,100115.16
2022-11-16T06:50:56.988Z,100114.75
2022-11-16T06:53:28.761Z,100117.16
2022-11-16T06:55:55.884Z,100119.78
2022-11-16T06:58:22.438Z,100128.13
2022-11-16T07:00:48.962Z,100122.22
2022-11-16T07:03:15.502Z,100131.59
2022-11-16T07:05:42.218Z,100129.72
2022-11-16T07:08:09.380Z,100134.41
2022-11-16T07:10:37.434Z,100136.41
2022-11-16T07:13:04.414Z,100132.31
2022-11-16T07:15:31.862Z,100132.91
2022-11-16T07:18:06.807Z,100139.41
2022-11-16T07:20:34.425Z,100134.50
2022-11-16T07:23:02.522Z,100128.19
2022-11-16T07:25:29.209Z,100139.97
2022-11-16T07:27:58.024Z,100151.78
2022-11-16T07:30:24.556Z,100154.84
2022-11-16T07:32:50.976Z,100161.78
2022-11-16T07:35:17.422Z,100166.84
2022-11-16T07:37:44.109Z,100167.41
2022-11-16T07:40:10.925Z,100171.28
2022-11-16T07:42:37.514Z,100167.78
2022-11-16T07:45:04.216Z,100171.03
2022-11-16T07:47:35.750Z,100174.50
2022-11-16T07:50:02.303Z,100181.81
2022-11-16T07:52:28.733Z,100170.59
2022-11-16T07:54:55.161Z,100183.66
2022-11-16T07:57:21.638Z,100187.94
2022-11-16T07:59:48.085Z,100188.97
2022-11-16T08:02:14.628Z,100196.91
2022-11-16T08:04:41.178Z,100204.66
2022-11-16T08:07:07.788Z,100206.28
2022-11-16T08:09:34.935Z,100206.91
2022-11-16T08:12:01.408Z,100210.41
2022-11-16T08:14:27.883Z,100215.47
2022-11-16T08:16:54.356Z,100218.75
2022-11-16T08:19:20.767Z,100203.88
2022-11-16T08:21:47.387Z,100216.56
2022-11-16T08:24:13.873Z,100220.00
2022-11-16T08:26:40.558Z,100220.47
2022-11-16T08:29:07.012Z,100228.22
2022-11-16T08:31:33.452Z,100228.66
2022-11-16T08:34:00.635Z,100219.72
2022-11-16T08:36:27.067Z,100225.66
2022-11-16T08:38:54.156Z,100229.75
2022-11-16T08:41:21.421Z,100220.59
2022-11-16T08:43:50.524Z,100217.38
2022-11-16T08:46:17.623Z,100223.47
2022-11-16T08:48:44.503Z,100219.81
2022-11-16T08:51:18.964Z,100233.91
2022-11-16T08:53:48.568Z,100223.72
2022-11-16T08:56:16.919Z,100233.34
2022-11-16T08:58:44.259Z,100238.06
2022-11-16T09:01:15.926Z,100233.16
2022-11-16T09:03:42.648Z,100228.91
2022-11-16T09:06:10.311Z,100236.66
2022-11-16T09:08:38.687Z,100234.22
2022-11-16T09:11:06.120Z,100231.84
2022-11-16T09:13:32.952Z,100226.22
2022-11-16T09:16:00.651Z,100221.16
2022-11-16T09:18:28.514Z,100225.88
2022-11-16T09:20:55.423Z,100230.78
2022-11-16T09:23:25.559Z,100223.44
2022-11-16T09:25:52.928Z,100227.16
2022-11-16T09:28:20.574Z,100237.38
2022-11-16T09:30:50.424Z,100244.31
2022-11-16T09:33:16.986Z,100248.38
2022-11-16T09:35:43.536Z,100245.50
2022-11-16T09:38:10.629Z,100251.66
2022-11-16T09:40:41.092Z,100246.78
2022-11-16T09:43:31.257Z,100247.44
2022-11-16T09:46:37.982Z,100253.81
2022-11-16T09:49:17.669Z,100244.19
2022-11-16T09:51:49.750Z,100244.56
2022-11-16T09:54:27.602Z,100238.88
2022-11-16T09:56:59.685Z,100242.78
2022-11-16T09:59:28.776Z,100253.84
2022-11-16T10:01:58.164Z,100247.72
2022-11-16T10:04:38.377Z,100244.03
2022-11-16T10:07:17.115Z,100251.59
2022-11-16T10:09:45.106Z,100253.66
2022-11-16T10:12:22.712Z,100250.38
2022-11-16T10:14:49.079Z,100251.78
2022-11-16T10:17:36.832Z,100253.03
2022-11-16T10:20:42.142Z,100237.28
2022-11-16T10:23:39.214Z,100240.56
2022-11-16T10:26:12.698Z,100247.69
2022-11-16T10:29:05.101Z,100243.81
2022-11-16T10:31:40.461Z,100242.00
2022-11-16T10:34:15.769Z,100244.03
2022-11-16T10:36:42.446Z,100244.22
2022-11-16T10:39:14.906Z,100240.31
2022-11-16T10:41:46.101Z,100247.09
2022-11-16T10:44:25.883Z,100242.38
2022-11-16T10:47:05.964Z,100252.59
2022-11-16T10:50:00.191Z,100246.03
2022-11-16T10:52:26.824Z,100248.28
2022-11-16T10:54:53.350Z,100244.78
2022-11-16T10:57:20.422Z,100241.94
2022-11-16T10:59:50.178Z,100249.34
2022-11-16T11:02:37.273Z,100250.75
2022-11-16T11:05:06.561Z,100252.59
2022-11-16T11:07:36.169Z,100247.47
2022-11-16T11:10:02.811Z,100248.09
2022-11-16T11:12:38.306Z,100240.13
2022-11-16T11:15:10.736Z,100248.06
2022-11-16T11:17:39.992Z,100242.31
2022-11-16T11:20:08.179Z,100241.91
2022-11-16T11:22:43.440Z,100241.88
2022-11-16T11:25:27.588Z,100243.06
2022-11-16T11:28:06.391Z,100230.31
2022-11-16T11:30:34.045Z,100230.38
2022-11-16T11:33:01.057Z,100220.16
2022-11-16T11:35:32.890Z,100219.69
2022-11-16T11:38:07.438Z,100223.34
2022-11-16T11:40:34.363Z,100224.34
2022-11-16T11:43:02.156Z,100211.81
2022-11-16T11:45:38.354Z,100209.31
2022-11-16T11:48:36.681Z,100196.19
2022-11-16T11:51:12.067Z,100202.34
2022-11-16T11:54:16.445Z,100201.50
2022-11-16T11:56:42.990Z,100201.50
2022-11-16T11:59:17.628Z,100207.38
2022-11-16T12:02:06.444Z,100209.91
2022-11-16T12:04:53.010Z,100210.16
2022-11-16T12:07:37.722Z,100215.66
2022-11-16T12:10:12.348Z,100207.50
2022-11-16T12:13:00.410Z,100213.66
2022-11-16T12:15:39.469Z,100192.97
2022-11-16T12:18:24.684Z,100210.38
2022-11-16T12:21:05.702Z,100209.38
2022-11-16T12:23:35.492Z,100214.69
2022-11-16T12:26:17.189Z,100208.97
2022-11-16T12:29:03.488Z,100202.22
2022-11-16T12:31:57.757Z,100206.28
2022-11-16T12:34:52.392Z,100212.03
2022-11-16T12:37:39.697Z,100216.69
2022-11-16T12:40:35.529Z,100200.13
2022-11-16T12:43:26.371Z,100201.44
2022-11-16T12:46:29.813Z,100177.97
2022-11-16T12:49:05.114Z,100168.31
2022-11-16T12:51:38.971Z,100169.59
2022-11-16T12:54:35.989Z,100173.06
2022-11-16T12:57:11.468Z,100166.72
2022-11-16T12:59:44.027Z,100159.50
2022-11-16T13:02:29.191Z,100162.94
2022-11-16T13:05:12.294Z,100160.88
2022-11-16T13:07:44.411Z,100164.13
2022-11-16T13:10:27.776Z,100162.28
2022-11-16T13:13:29.645Z,100151.25
2022-11-16T13:15:48.266Z,100154.13
2022-11-16T13:18:18.123Z,100143.91
2022-11-16T13:20:48.513Z,100152.94
2022-11-16T13:23:46.439Z,100153.13
2022-11-16T13:26:26.660Z,100152.09
2022-11-16T13:29:39.833Z,100142.47
2022-11-16T13:32:17.644Z,100152.34
2022-11-16T13:34:45.907Z,100149.44
2022-11-16T13:37:37.044Z,100150.97
2022-11-16T13:40:04.424Z,100151.63
2022-11-16T13:42:34.071Z,100159.88
2022-11-16T13:45:17.629Z,100165.03
2022-11-16T13:47:55.874Z,100162.06
2022-11-16T13:50:33.112Z,100151.44
2022-11-16T13:56:16.804Z,100142.63
2022-11-16T13:58:46.983Z,100141.19
2022-11-16T14:01:14.773Z,100137.31
2022-11-16T14:03:51.382Z,100138.16
2022-11-16T14:06:23.798Z,100142.84
2022-11-16T14:08:57.131Z,100136.66
2022-11-16T14:11:38.735Z,100137.25
2022-11-16T14:14:10.555Z,100131.53
2022-11-16T14:16:51.164Z,100134.78
2022-11-16T14:19:47.593Z,100116.81
2022-11-16T14:22:55.449Z,100115.59
2022-11-16T14:25:40.213Z,100120.75
2022-11-16T14:28:37.644Z,100118.75
2022-11-16T14:31:15.445Z,100116.34
2022-11-16T14:33:42.696Z,100118.00
2022-11-16T14:36:10.748Z,100118.16
2022-11-16T14:38:42.862Z,100117.78
2022-11-16T14:41:22.278Z,100115.53
2022-11-16T14:43:53.011Z,100111.44
2022-11-16T14:46:26.009Z,100111.84
2022-11-16T14:48:55.556Z,100102.41
2022-11-16T14:51:27.117Z,100093.59
2022-11-16T14:54:01.762Z,100091.41
2022-11-16T14:56:28.323Z,100082.38
2022-11-16T14:58:57.269Z,100084.66
2022-11-16T15:01:31.393Z,100089.41
2022-11-16T15:04:04.750Z,100087.59
2022-11-16T15:06:40.775Z,100086.38
2022-11-16T15:09:07.584Z,100080.47
2022-11-16T15:11:57.783Z,100085.78
2022-11-16T15:14:29.902Z,100081.94
2022-11-16T15:16:59.031Z,100081.13
2022-11-16T15:19:28.720Z,100078.88
2022-11-16T15:22:00.529Z,100065.41
2022-11-16T15:24:34.881Z,100068.66
2022-11-16T15:27:33.508Z,100063.78
2022-11-16T15:30:14.868Z,100056.44
2022-11-16T15:32:43.365Z,100055.00
2022-11-16T15:35:30.022Z,100054.19
2022-11-16T15:38:21.891Z,100058.66
2022-11-16T15:40:58.636Z,100047.84
2022-11-16T15:44:01.456Z,100047.25
2022-11-16T15:46:34.016Z,100039.25
2022-11-16T15:49:00.878Z,100031.66
2022-11-16T15:51:33.574Z,100026.75
2022-11-16T15:54:24.908Z,100012.66
2022-11-16T15:56:56.894Z,100020.78
2022-11-16T15:59:34.393Z,100012.22
2022-11-16T16:02:00.877Z,100015.84
2022-11-16T16:04:28.976Z,100016.25
2022-11-16T16:06:57.927Z,100010.72
2022-11-16T16:09:28.714Z,99996.22
2022-11-16T16:12:21.020Z,99991.09
2022-11-16T16:14:49.218Z,100011.06
2022-11-16T16:17:28.115Z,100014.94
2022-11-16T16:20:00.341Z,100017.78
2022-11-16T16:22:33.312Z,100012.25
2022-11-16T16:25:01.823Z,100014.50
2022-11-16T16:27:30.414Z,100012.84
2022-11-16T16:29:59.054Z,100007.34
2022-11-16T16:32:31.049Z,99996.13
2022-11-16T16:34:59.668Z,99997.34
2022-11-16T16:37:28.527Z,99990.22
2022-11-16T16:39:55.193Z,99978.19
2022-11-16T16:42:21.847Z,99983.91
2022-11-16T16:44:49.739Z,99993.88
2022-11-16T16:47:17.611Z,99985.31
2022-11-16T16:49:44.091Z,99986.13
2022-11-16T16:52:12.362Z,99979.22
2022-11-16T16:54:39.357Z,99984.91
2022-11-16T16:57:05.848Z,99987.09
2022-11-16T16:59:32.385Z,99979.78
2022-11-16T17:01:59.242Z,99979.78
2022-11-16T17:04:26.010Z,99969.97
2022-11-16T17:06:53.212Z,99962.84
2022-11-16T17:09:20.154Z,99962.22
2022-11-16T17:11:47.558Z,99962.81
2022-11-16T17:14:14.189Z,99960.13
2022-11-16T17:16:40.735Z,99964.81
2022-11-16T17:19:07.211Z,99956.44
2022-11-16T17:21:33.702Z,99961.09
2022-11-16T17:24:00.213Z,99958.22
2022-11-16T17:26:29.353Z,99958.44
2022-11-16T17:28:57.108Z,99958.19
2022-11-16T17:31:25.029Z,99958.97
2022-11-16T17:33:52.261Z,99964.28
2022-11-16T17:36:18.941Z,99966.28
2022-11-16T17:38:45.588Z,99976.63
2022-11-16T17:41:18.133Z,99968.47
2022-11-16T17:43:46.436Z,99968.00
2022-11-16T17:46:16.621Z,99961.06
2022-11-16T17:48:45.120Z,99952.50
2022-11-16T17:51:12.940Z,99944.13
2022-11-16T17:53:40.706Z,99944.94
2022-11-16T17:56:08.038Z,99948.38
2022-11-16T17:58:34.566Z,99937.50
2022-11-16T18:01:01.343Z,99938.53
2022-11-16T18:03:30.717Z,99938.53
2022-11-16T18:06:13.197Z,99933.22
2022-11-16T18:08:41.459Z,99930.03
2022-11-16T18:11:11.025Z,99936.56
2022-11-16T18:13:37.894Z,99928.06
2022-11-16T18:16:14.170Z,99937.66
2022-11-16T18:18:41.548Z,99936.28
2022-11-16T18:21:09.305Z,99928.38
2022-11-16T18:23:37.435Z,99930.25
2022-11-16T18:26:08.868Z,99923.75
2022-11-16T18:28:35.669Z,99927.25
2022-11-16T18:31:07.414Z,99932.38
2022-11-16T18:33:36.334Z,99932.41
2022-11-16T18:36:04.627Z,99927.53
2022-11-16T18:38:31.506Z,99929.59
2022-11-16T18:41:13.320Z,99921.06
2022-11-16T18:43:39.706Z,99920.25
2022-11-16T18:46:06.722Z,99910.88
2022-11-16T18:48:33.277Z,99905.16
2022-11-16T18:51:00.856Z,99907.81
2022-11-16T18:53:28.583Z,99892.09
2022-11-16T18:55:57.993Z,99899.03
2022-11-16T18:58:49.409Z,99898.84
2022-11-16T19:01:14.831Z,99895.81
2022-11-16T19:03:42.015Z,99889.28
2022-11-16T19:06:10.132Z,99877.09
2022-11-16T19:08:38.765Z,99882.41
2022-11-16T19:11:15.776Z,99874.28
2022-11-16T19:13:44.023Z,99873.28
2022-11-16T19:16:13.329Z,99865.13
2022-11-16T19:18:40.537Z,99865.34
2022-11-16T19:21:08.119Z,99853.50
2022-11-16T19:23:38.897Z,99846.78
2022-11-16T19:26:06.193Z,99842.28
2022-11-16T19:28:40.063Z,99828.44
2022-11-16T19:31:19.756Z,99831.31
2022-11-16T19:33:46.714Z,99817.22
2022-11-16T19:36:16.011Z,99817.84
2022-11-16T19:38:45.150Z,99815.00
2022-11-16T19:41:13.428Z,99798.28
2022-11-16T19:43:40.228Z,99801.34
2022-11-16T19:46:18.052Z,99802.97
2022-11-16T19:48:45.813Z,99791.16
2022-11-16T19:51:15.244Z,99789.94
2022-11-16T19:53:42.545Z,99788.09
2022-11-16T19:56:12.425Z,99771.56
2022-11-16T19:58:39.120Z,99775.88
2022-11-16T20:01:14.443Z,99767.28
2022-11-16T20:03:41.958Z,99760.97
2022-11-16T20:06:29.400Z,99759.75
2022-11-16T20:09:02.146Z,99751.41
2022-11-16T20:11:30.455Z,99748.94
2022-11-16T20:13:58.208Z,99741.41
2022-11-16T20:16:27.502Z,99729.78
2022-11-16T20:18:54.401Z,99727.13
2022-11-16T20:21:25.689Z,99717.34
2022-11-16T20:23:53.470Z,99727.13
2022-11-16T20:26:20.882Z,99714.50
2022-11-16T20:28:47.801Z,99726.31
2022-11-16T20:31:16.621Z,99717.75
2022-11-16T20:33:49.678Z,99723.06
2022-11-16T20:36:16.170Z,99717.13
2022-11-16T20:38:42.614Z,99702.84
2022-11-16T20:41:13.789Z,99703.44
2022-11-16T20:43:41.366Z,99691.81
2022-11-16T20:46:09.417Z,99691.00
2022-11-16T20:48:36.456Z,99688.34
2022-11-16T20:51:03.450Z,99681.81
2022-11-16T20:53:30.309Z,99666.94
2022-11-16T20:55:57.578Z,99669.38
2022-11-16T20:58:24.819Z,99666.53
2022-11-16T21:00:51.309Z,99667.72
2022-11-16T21:03:17.840Z,99674.44
2022-11-16T21:05:45.513Z,99659.72
2022-11-16T21:08:12.426Z,99661.38
2022-11-16T21:10:39.734Z,99652.81
2022-11-16T21:13:29.365Z,99634.84
2022-11-16T21:16:00.915Z,99630.38
2022-11-16T21:18:30.702Z,99620.97
2022-11-16T21:20:59.821Z,99615.69
2022-11-16T21:23:28.604Z,99618.94
2022-11-16T21:25:55.859Z,99614.06
2022-11-16T21:28:25.468Z,99606.94
2022-11-16T21:30:56.832Z,99589.59
2022-11-16T21:33:23.985Z,99594.69
2022-11-16T21:35:52.637Z,99589.16
2022-11-16T21:38:20.406Z,99582.84
2022-11-16T21:40:47.241Z,99572.22
2022-11-16T21:43:15.084Z,99576.50
2022-11-16T21:45:45.953Z,99564.06
2022-11-16T21:48:12.729Z,99549.78
2022-11-16T21:50:39.803Z,99546.53
2022-11-16T21:53:07.724Z,99541.22
2022-11-16T21:55:34.881Z,99539.81
2022-11-16T21:58:03.496Z,99533.47
2022-11-16T22:00:30.613Z,99531.84
2022-11-16T22:02:57.121Z,99532.69
2022-11-16T22:05:42.385Z,99522.25
2022-11-16T22:08:13.337Z,99502.31
2022-11-16T22:10:40.038Z,99523.28
2022-11-16T22:13:06.465Z,99509.00
2022-11-16T22:15:33.085Z,99496.78
2022-11-16T22:17:59.585Z,99498.19
2022-11-16T22:20:26.063Z,99489.66
2022-11-16T22:22:52.561Z,99486.16
2022-11-16T22:25:19.174Z,99479.84
2022-11-16T22:28:18.629Z,99470.84
2022-11-16T22:30:35.636Z,99455.19
2022-11-16T22:33:02.107Z,99444.56
2022-11-16T22:35:28.574Z,99447.59
2022-11-16T22:37:55.971Z,99429.03
2022-11-16T22:40:22.401Z,99426.38
2022-11-16T22:42:48.857Z,99417.03
2022-11-16T22:45:15.462Z,99405.59
2022-11-16T22:47:41.961Z,99414.97
2022-11-16T22:50:08.707Z,99399.84
2022-11-16T22:52:35.244Z,99390.88
2022-11-16T22:55:01.660Z,99384.97
2022-11-16T22:57:28.071Z,99377.44
2022-11-16T22:59:54.658Z,99368.91
2022-11-16T23:02:21.112Z,99361.19
2022-11-16T23:04:47.577Z,99352.63
2022-11-16T23:07:14.054Z,99339.38
2022-11-16T23:09:40.537Z,99343.41
2022-11-16T23:12:25.235Z,99327.94
2022-11-16T23:15:09.895Z,99322.03
2022-11-16T23:17:36.381Z,99319.19
2022-11-16T23:20:21.873Z,99322.88
2022-11-16T23:23:23.378Z,99312.25
2022-11-16T23:26:08.685Z,99304.50
2022-11-16T23:28:35.281Z,99299.66
2022-11-16T23:31:01.715Z,99289.03
2022-11-16T23:33:46.368Z,99296.41
2022-11-16T23:36:13.357Z,99285.44
2022-11-16T23:38:40.399Z,99277.25
2022-11-16T23:41:25.497Z,99272.19
2022-11-16T23:43:57.711Z,99254.88
2022-11-16T23:46:29.081Z,99244.84
2022-11-16T23:48:55.946Z,99235.28
2022-11-16T23:51:23.453Z,99216.13
2022-11-16T23:53:54.276Z,99211.44
2022-11-16T23:56:21.402Z,99197.81
2022-11-16T23:58:48.385Z,99180.50
